sensor_id;sensor_type;location;lat;lon;timestamp;P1;durP1;ratioP1;P2;durP2;ratioP2
79122;SDS011;68526;44.600;26.032;2024-02-04T00:00:01;26.67;;;18.55;;
79122;SDS011;68526;44.600;26.032;2024-02-04T00:00:17;26.93;;;18.43;;
79122;SDS011;68526;44.600;26.032;2024-02-04T00:00:35;26.60;;;18.23;;
79122;SDS011;68526;44.600;26.032;2024-02-04T00:00:52;26.17;;;17.50;;
79122;SDS011;68526;44.600;26.032;2024-02-04T00:01:08;26.33;;;18.05;;
79122;SDS011;68526;44.600;26.032;2024-02-04T00:01:24;26.23;;;18.02;;
79122;SDS011;68526;44.600;26.032;2024-02-04T00:01:39;26.75;;;18.05;;
79122;SDS011;68526;44.600;26.032;2024-02-04T00:01:55;28.83;;;18.88;;
79122;SDS011;68526;44.600;26.032;2024-02-04T00:02:12;28.08;;;18.48;;
79122;SDS011;68526;44.600;26.032;2024-02-04T00:02:29;26.40;;;17.83;;
79122;SDS011;68526;44.600;26.032;2024-02-04T00:02:46;25.17;;;17.13;;
79122;SDS011;68526;44.600;26.032;2024-02-04T00:03:02;26.98;;;17.77;;
79122;SDS011;68526;44.600;26.032;2024-02-04T00:03:18;27.77;;;18.60;;
79122;SDS011;68526;44.600;26.032;2024-02-04T00:03:34;26.23;;;18.30;;
79122;SDS011;68526;44.600;26.032;2024-02-04T00:03:50;26.95;;;18.48;;
79122;SDS011;68526;44.600;26.032;2024-02-04T00:04:06;27.55;;;18.25;;
79122;SDS011;68526;44.600;26.032;2024-02-04T00:04:23;28.02;;;18.63;;
79122;SDS011;68526;44.600;26.032;2024-02-04T00:04:39;29.02;;;19.33;;
79122;SDS011;68526;44.600;26.032;2024-02-04T00:04:55;26.67;;;18.42;;
79122;SDS011;68526;44.600;26.032;2024-02-04T00:05:11;26.02;;;18.50;;
79122;SDS011;68526;44.600;26.032;2024-02-04T00:05:27;26.55;;;18.40;;
79122;SDS011;68526;44.600;26.032;2024-02-04T00:05:43;26.25;;;18.33;;
79122;SDS011;68526;44.600;26.032;2024-02-04T00:05:59;26.58;;;18.83;;
79122;SDS011;68526;44.600;26.032;2024-02-04T00:06:16;27.88;;;18.70;;
79122;SDS011;68526;44.600;26.032;2024-02-04T00:06:32;28.20;;;18.50;;
79122;SDS011;68526;44.600;26.032;2024-02-04T00:06:48;27.55;;;18.40;;
79122;SDS011;68526;44.600;26.032;2024-02-04T00:07:04;26.45;;;17.38;;
79122;SDS011;68526;44.600;26.032;2024-02-04T00:07:20;28.05;;;17.77;;
79122;SDS011;68526;44.600;26.032;2024-02-04T00:07:36;28.17;;;18.70;;
79122;SDS011;68526;44.600;26.032;2024-02-04T00:07:52;25.73;;;18.20;;
79122;SDS011;68526;44.600;26.032;2024-02-04T00:08:08;26.10;;;18.30;;
79122;SDS011;68526;44.600;26.032;2024-02-04T00:08:25;27.63;;;18.10;;
79122;SDS011;68526;44.600;26.032;2024-02-04T00:08:41;27.38;;;18.40;;
79122;SDS011;68526;44.600;26.032;2024-02-04T00:08:57;26.52;;;18.50;;
79122;SDS011;68526;44.600;26.032;2024-02-04T00:09:13;27.17;;;18.17;;
79122;SDS011;68526;44.600;26.032;2024-02-04T00:09:29;26.10;;;18.20;;
79122;SDS011;68526;44.600;26.032;2024-02-04T00:09:45;26.15;;;18.38;;
79122;SDS011;68526;44.600;26.032;2024-02-04T00:10:01;26.77;;;18.38;;
79122;SDS011;68526;44.600;26.032;2024-02-04T00:10:17;26.98;;;18.33;;
79122;SDS011;68526;44.600;26.032;2024-02-04T00:10:34;26.55;;;18.08;;
79122;SDS011;68526;44.600;26.032;2024-02-04T00:10:51;25.85;;;17.95;;
79122;SDS011;68526;44.600;26.032;2024-02-04T00:11:06;26.45;;;18.33;;
79122;SDS011;68526;44.600;26.032;2024-02-04T00:11:25;27.60;;;18.25;;
79122;SDS011;68526;44.600;26.032;2024-02-04T00:11:41;25.95;;;17.63;;
79122;SDS011;68526;44.600;26.032;2024-02-04T00:11:57;23.90;;;17.60;;
79122;SDS011;68526;44.600;26.032;2024-02-04T00:12:18;23.67;;;17.67;;
79122;SDS011;68526;44.600;26.032;2024-02-04T00:12:34;25.77;;;18.40;;
79122;SDS011;68526;44.600;26.032;2024-02-04T00:12:50;25.60;;;17.77;;
79122;SDS011;68526;44.600;26.032;2024-02-04T00:13:06;25.67;;;17.30;;
79122;SDS011;68526;44.600;26.032;2024-02-04T00:13:22;26.50;;;17.33;;
79122;SDS011;68526;44.600;26.032;2024-02-04T00:13:38;27.02;;;17.80;;
79122;SDS011;68526;44.600;26.032;2024-02-04T00:13:55;27.25;;;18.40;;
79122;SDS011;68526;44.600;26.032;2024-02-04T00:14:11;25.08;;;17.67;;
79122;SDS011;68526;44.600;26.032;2024-02-04T00:14:27;27.15;;;17.77;;
79122;SDS011;68526;44.600;26.032;2024-02-04T00:14:43;27.50;;;18.00;;
79122;SDS011;68526;44.600;26.032;2024-02-04T00:14:59;24.83;;;17.70;;
79122;SDS011;68526;44.600;26.032;2024-02-04T00:15:15;26.05;;;17.30;;
79122;SDS011;68526;44.600;26.032;2024-02-04T00:15:31;25.55;;;16.98;;
79122;SDS011;68526;44.600;26.032;2024-02-04T00:15:48;24.27;;;17.23;;
79122;SDS011;68526;44.600;26.032;2024-02-04T00:16:05;23.80;;;17.20;;
79122;SDS011;68526;44.600;26.032;2024-02-04T00:16:21;25.83;;;17.92;;
79122;SDS011;68526;44.600;26.032;2024-02-04T00:16:37;27.33;;;18.20;;
79122;SDS011;68526;44.600;26.032;2024-02-04T00:16:53;25.55;;;17.80;;
79122;SDS011;68526;44.600;26.032;2024-02-04T00:17:09;25.25;;;18.15;;
79122;SDS011;68526;44.600;26.032;2024-02-04T00:17:25;27.75;;;18.15;;
79122;SDS011;68526;44.600;26.032;2024-02-04T00:17:45;28.98;;;17.65;;
79122;SDS011;68526;44.600;26.032;2024-02-04T00:18:02;27.20;;;17.80;;
79122;SDS011;68526;44.600;26.032;2024-02-04T00:18:18;27.13;;;17.38;;
79122;SDS011;68526;44.600;26.032;2024-02-04T00:18:34;26.20;;;17.47;;
79122;SDS011;68526;44.600;26.032;2024-02-04T00:18:50;25.67;;;17.30;;
79122;SDS011;68526;44.600;26.032;2024-02-04T00:19:05;28.52;;;17.10;;
79122;SDS011;68526;44.600;26.032;2024-02-04T00:19:23;26.73;;;17.17;;
79122;SDS011;68526;44.600;26.032;2024-02-04T00:19:39;26.27;;;17.05;;
79122;SDS011;68526;44.600;26.032;2024-02-04T00:19:55;28.48;;;17.92;;
79122;SDS011;68526;44.600;26.032;2024-02-04T00:20:12;26.85;;;18.02;;
79122;SDS011;68526;44.600;26.032;2024-02-04T00:20:28;24.60;;;17.52;;
79122;SDS011;68526;44.600;26.032;2024-02-04T00:20:47;27.48;;;18.10;;
79122;SDS011;68526;44.600;26.032;2024-02-04T00:21:03;27.70;;;17.80;;
79122;SDS011;68526;44.600;26.032;2024-02-04T00:21:20;25.58;;;18.08;;
79122;SDS011;68526;44.600;26.032;2024-02-04T00:21:36;24.95;;;17.77;;
79122;SDS011;68526;44.600;26.032;2024-02-04T00:21:52;27.17;;;17.40;;
79122;SDS011;68526;44.600;26.032;2024-02-04T00:22:09;29.23;;;17.90;;
79122;SDS011;68526;44.600;26.032;2024-02-04T00:22:25;28.33;;;18.17;;
79122;SDS011;68526;44.600;26.032;2024-02-04T00:22:40;26.40;;;17.95;;
79122;SDS011;68526;44.600;26.032;2024-02-04T00:22:56;25.17;;;17.42;;
79122;SDS011;68526;44.600;26.032;2024-02-04T00:23:12;24.80;;;17.35;;
79122;SDS011;68526;44.600;26.032;2024-02-04T00:23:28;25.42;;;17.33;;
79122;SDS011;68526;44.600;26.032;2024-02-04T00:23:44;26.30;;;18.05;;
79122;SDS011;68526;44.600;26.032;2024-02-04T00:24:01;28.23;;;18.55;;
79122;SDS011;68526;44.600;26.032;2024-02-04T00:24:17;28.42;;;18.63;;
79122;SDS011;68526;44.600;26.032;2024-02-04T00:24:34;27.63;;;18.60;;
79122;SDS011;68526;44.600;26.032;2024-02-04T00:24:50;28.23;;;17.87;;
79122;SDS011;68526;44.600;26.032;2024-02-04T00:25:06;27.23;;;17.67;;
79122;SDS011;68526;44.600;26.032;2024-02-04T00:25:26;26.98;;;18.48;;
79122;SDS011;68526;44.600;26.032;2024-02-04T00:25:44;24.88;;;17.58;;
79122;SDS011;68526;44.600;26.032;2024-02-04T00:26:00;24.25;;;17.23;;
79122;SDS011;68526;44.600;26.032;2024-02-04T00:26:16;24.52;;;17.67;;
79122;SDS011;68526;44.600;26.032;2024-02-04T00:26:32;24.75;;;17.42;;
79122;SDS011;68526;44.600;26.032;2024-02-04T00:26:48;26.23;;;17.38;;
79122;SDS011;68526;44.600;26.032;2024-02-04T00:27:04;27.75;;;17.70;;
79122;SDS011;68526;44.600;26.032;2024-02-04T00:27:20;26.43;;;17.30;;
79122;SDS011;68526;44.600;26.032;2024-02-04T00:27:37;25.08;;;17.17;;
79122;SDS011;68526;44.600;26.032;2024-02-04T00:27:53;25.20;;;17.10;;
79122;SDS011;68526;44.600;26.032;2024-02-04T00:28:09;25.37;;;16.93;;
79122;SDS011;68526;44.600;26.032;2024-02-04T00:28:26;24.55;;;17.27;;
79122;SDS011;68526;44.600;26.032;2024-02-04T00:28:43;24.20;;;17.55;;
79122;SDS011;68526;44.600;26.032;2024-02-04T00:28:59;25.83;;;17.75;;
79122;SDS011;68526;44.600;26.032;2024-02-04T00:29:16;27.05;;;17.73;;
79122;SDS011;68526;44.600;26.032;2024-02-04T00:29:32;27.73;;;17.70;;
79122;SDS011;68526;44.600;26.032;2024-02-04T00:29:48;25.75;;;17.90;;
79122;SDS011;68526;44.600;26.032;2024-02-04T00:30:04;26.33;;;17.85;;
79122;SDS011;68526;44.600;26.032;2024-02-04T00:30:21;27.38;;;17.80;;
79122;SDS011;68526;44.600;26.032;2024-02-04T00:30:37;27.50;;;18.17;;
79122;SDS011;68526;44.600;26.032;2024-02-04T00:30:55;26.60;;;17.33;;
79122;SDS011;68526;44.600;26.032;2024-02-04T00:31:13;28.10;;;17.80;;
79122;SDS011;68526;44.600;26.032;2024-02-04T00:31:28;27.03;;;17.97;;
79122;SDS011;68526;44.600;26.032;2024-02-04T00:31:44;26.67;;;17.55;;
79122;SDS011;68526;44.600;26.032;2024-02-04T00:32:00;24.95;;;16.98;;
79122;SDS011;68526;44.600;26.032;2024-02-04T00:32:16;26.50;;;17.65;;
79122;SDS011;68526;44.600;26.032;2024-02-04T00:32:32;29.60;;;18.73;;
79122;SDS011;68526;44.600;26.032;2024-02-04T00:32:49;28.63;;;18.42;;
79122;SDS011;68526;44.600;26.032;2024-02-04T00:33:05;28.03;;;18.77;;
79122;SDS011;68526;44.600;26.032;2024-02-04T00:33:21;27.20;;;18.70;;
79122;SDS011;68526;44.600;26.032;2024-02-04T00:33:37;25.85;;;18.30;;
79122;SDS011;68526;44.600;26.032;2024-02-04T00:33:53;26.52;;;18.15;;
79122;SDS011;68526;44.600;26.032;2024-02-04T00:34:09;26.75;;;17.58;;
79122;SDS011;68526;44.600;26.032;2024-02-04T00:34:25;27.67;;;18.15;;
79122;SDS011;68526;44.600;26.032;2024-02-04T00:34:41;26.20;;;18.30;;
79122;SDS011;68526;44.600;26.032;2024-02-04T00:34:57;25.87;;;17.97;;
79122;SDS011;68526;44.600;26.032;2024-02-04T00:35:13;26.98;;;17.95;;
79122;SDS011;68526;44.600;26.032;2024-02-04T00:35:29;26.40;;;18.13;;
79122;SDS011;68526;44.600;26.032;2024-02-04T00:35:45;25.83;;;17.65;;
79122;SDS011;68526;44.600;26.032;2024-02-04T00:36:01;25.70;;;16.90;;
79122;SDS011;68526;44.600;26.032;2024-02-04T00:36:18;25.70;;;17.30;;
79122;SDS011;68526;44.600;26.032;2024-02-04T00:36:35;27.73;;;18.27;;
79122;SDS011;68526;44.600;26.032;2024-02-04T00:36:51;26.77;;;17.80;;
79122;SDS011;68526;44.600;26.032;2024-02-04T00:37:07;26.37;;;17.63;;
79122;SDS011;68526;44.600;26.032;2024-02-04T00:37:23;26.95;;;18.35;;
79122;SDS011;68526;44.600;26.032;2024-02-04T00:37:39;27.13;;;18.73;;
79122;SDS011;68526;44.600;26.032;2024-02-04T00:37:56;26.52;;;18.27;;
79122;SDS011;68526;44.600;26.032;2024-02-04T00:38:12;26.67;;;18.23;;
79122;SDS011;68526;44.600;26.032;2024-02-04T00:38:28;26.50;;;18.25;;
79122;SDS011;68526;44.600;26.032;2024-02-04T00:38:44;27.05;;;18.50;;
79122;SDS011;68526;44.600;26.032;2024-02-04T00:39:00;27.23;;;18.35;;
79122;SDS011;68526;44.600;26.032;2024-02-04T00:39:16;25.42;;;17.98;;
79122;SDS011;68526;44.600;26.032;2024-02-04T00:39:33;27.10;;;18.80;;
79122;SDS011;68526;44.600;26.032;2024-02-04T00:39:49;28.30;;;18.50;;
79122;SDS011;68526;44.600;26.032;2024-02-04T00:40:05;27.52;;;18.25;;
79122;SDS011;68526;44.600;26.032;2024-02-04T00:40:22;27.85;;;18.77;;
79122;SDS011;68526;44.600;26.032;2024-02-04T00:40:38;28.50;;;19.23;;
79122;SDS011;68526;44.600;26.032;2024-02-04T00:40:54;28.33;;;19.80;;
79122;SDS011;68526;44.600;26.032;2024-02-04T00:41:11;26.85;;;19.23;;
79122;SDS011;68526;44.600;26.032;2024-02-04T00:41:27;27.55;;;18.92;;
79122;SDS011;68526;44.600;26.032;2024-02-04T00:41:44;28.05;;;18.75;;
79122;SDS011;68526;44.600;26.032;2024-02-04T00:42:00;28.90;;;18.63;;
79122;SDS011;68526;44.600;26.032;2024-02-04T00:42:16;28.05;;;18.55;;
79122;SDS011;68526;44.600;26.032;2024-02-04T00:42:32;26.55;;;18.63;;
79122;SDS011;68526;44.600;26.032;2024-02-04T00:42:48;28.20;;;19.50;;
79122;SDS011;68526;44.600;26.032;2024-02-04T00:43:04;29.77;;;19.38;;
79122;SDS011;68526;44.600;26.032;2024-02-04T00:43:21;30.08;;;18.30;;
79122;SDS011;68526;44.600;26.032;2024-02-04T00:43:37;28.80;;;18.45;;
79122;SDS011;68526;44.600;26.032;2024-02-04T00:43:53;27.20;;;18.92;;
79122;SDS011;68526;44.600;26.032;2024-02-04T00:44:09;27.35;;;19.30;;
79122;SDS011;68526;44.600;26.032;2024-02-04T00:44:25;29.45;;;19.65;;
79122;SDS011;68526;44.600;26.032;2024-02-04T00:44:41;26.63;;;18.40;;
79122;SDS011;68526;44.600;26.032;2024-02-04T00:44:56;27.00;;;18.67;;
79122;SDS011;68526;44.600;26.032;2024-02-04T00:45:12;29.65;;;19.08;;
79122;SDS011;68526;44.600;26.032;2024-02-04T00:45:29;28.27;;;18.98;;
79122;SDS011;68526;44.600;26.032;2024-02-04T00:45:45;28.42;;;19.13;;
79122;SDS011;68526;44.600;26.032;2024-02-04T00:46:03;28.55;;;18.63;;
79122;SDS011;68526;44.600;26.032;2024-02-04T00:46:19;28.38;;;18.45;;
79122;SDS011;68526;44.600;26.032;2024-02-04T00:46:35;26.83;;;18.80;;
79122;SDS011;68526;44.600;26.032;2024-02-04T00:46:51;27.70;;;19.42;;
79122;SDS011;68526;44.600;26.032;2024-02-04T00:47:06;30.13;;;20.23;;
79122;SDS011;68526;44.600;26.032;2024-02-04T00:47:23;29.33;;;19.92;;
79122;SDS011;68526;44.600;26.032;2024-02-04T00:47:41;28.08;;;19.20;;
79122;SDS011;68526;44.600;26.032;2024-02-04T00:47:56;27.85;;;19.17;;
79122;SDS011;68526;44.600;26.032;2024-02-04T00:48:12;28.50;;;19.48;;
79122;SDS011;68526;44.600;26.032;2024-02-04T00:48:28;30.30;;;19.90;;
79122;SDS011;68526;44.600;26.032;2024-02-04T00:48:44;29.83;;;19.60;;
79122;SDS011;68526;44.600;26.032;2024-02-04T00:49:00;28.70;;;19.45;;
79122;SDS011;68526;44.600;26.032;2024-02-04T00:49:16;30.02;;;19.88;;
79122;SDS011;68526;44.600;26.032;2024-02-04T00:49:32;29.67;;;19.25;;
79122;SDS011;68526;44.600;26.032;2024-02-04T00:49:48;29.20;;;18.92;;
79122;SDS011;68526;44.600;26.032;2024-02-04T00:50:06;28.95;;;18.98;;
79122;SDS011;68526;44.600;26.032;2024-02-04T00:50:22;28.23;;;18.88;;
79122;SDS011;68526;44.600;26.032;2024-02-04T00:50:38;28.83;;;19.40;;
79122;SDS011;68526;44.600;26.032;2024-02-04T00:50:54;29.48;;;19.60;;
79122;SDS011;68526;44.600;26.032;2024-02-04T00:51:10;28.90;;;19.35;;
79122;SDS011;68526;44.600;26.032;2024-02-04T00:51:28;28.38;;;19.48;;
79122;SDS011;68526;44.600;26.032;2024-02-04T00:51:44;29.08;;;19.52;;
79122;SDS011;68526;44.600;26.032;2024-02-04T00:52:01;29.40;;;19.17;;
79122;SDS011;68526;44.600;26.032;2024-02-04T00:52:17;27.42;;;19.60;;
79122;SDS011;68526;44.600;26.032;2024-02-04T00:52:33;27.02;;;19.92;;
79122;SDS011;68526;44.600;26.032;2024-02-04T00:52:49;28.98;;;19.88;;
79122;SDS011;68526;44.600;26.032;2024-02-04T00:53:05;29.10;;;19.27;;
79122;SDS011;68526;44.600;26.032;2024-02-04T00:53:21;29.50;;;19.52;;
79122;SDS011;68526;44.600;26.032;2024-02-04T00:53:36;29.98;;;19.08;;
79122;SDS011;68526;44.600;26.032;2024-02-04T00:53:52;29.37;;;19.10;;
79122;SDS011;68526;44.600;26.032;2024-02-04T00:54:09;29.55;;;19.35;;
79122;SDS011;68526;44.600;26.032;2024-02-04T00:54:25;28.00;;;18.85;;
79122;SDS011;68526;44.600;26.032;2024-02-04T00:54:41;27.38;;;18.75;;
79122;SDS011;68526;44.600;26.032;2024-02-04T00:54:57;28.27;;;18.88;;
79122;SDS011;68526;44.600;26.032;2024-02-04T00:55:13;26.10;;;18.13;;
79122;SDS011;68526;44.600;26.032;2024-02-04T00:55:29;25.77;;;17.73;;
79122;SDS011;68526;44.600;26.032;2024-02-04T00:55:45;26.17;;;18.85;;
79122;SDS011;68526;44.600;26.032;2024-02-04T00:56:02;25.30;;;18.27;;
79122;SDS011;68526;44.600;26.032;2024-02-04T00:56:19;26.92;;;18.55;;
79122;SDS011;68526;44.600;26.032;2024-02-04T00:56:35;27.25;;;17.95;;
79122;SDS011;68526;44.600;26.032;2024-02-04T00:56:53;28.13;;;17.95;;
79122;SDS011;68526;44.600;26.032;2024-02-04T00:57:09;28.17;;;18.58;;
79122;SDS011;68526;44.600;26.032;2024-02-04T00:57:25;28.35;;;18.50;;
79122;SDS011;68526;44.600;26.032;2024-02-04T00:57:41;27.88;;;18.77;;
79122;SDS011;68526;44.600;26.032;2024-02-04T00:57:56;25.92;;;18.80;;
79122;SDS011;68526;44.600;26.032;2024-02-04T00:58:16;26.98;;;18.83;;
79122;SDS011;68526;44.600;26.032;2024-02-04T00:58:32;26.80;;;18.55;;
79122;SDS011;68526;44.600;26.032;2024-02-04T00:58:48;25.27;;;18.20;;
79122;SDS011;68526;44.600;26.032;2024-02-04T00:59:04;26.48;;;18.17;;
79122;SDS011;68526;44.600;26.032;2024-02-04T00:59:20;27.75;;;18.40;;
79122;SDS011;68526;44.600;26.032;2024-02-04T00:59:36;27.13;;;18.40;;
79122;SDS011;68526;44.600;26.032;2024-02-04T00:59:52;27.88;;;18.63;;
79122;SDS011;68526;44.600;26.032;2024-02-04T01:00:09;28.60;;;18.83;;
79122;SDS011;68526;44.600;26.032;2024-02-04T01:00:25;27.88;;;18.60;;
79122;SDS011;68526;44.600;26.032;2024-02-04T01:00:41;29.35;;;19.00;;
79122;SDS011;68526;44.600;26.032;2024-02-04T01:00:57;27.80;;;18.50;;
79122;SDS011;68526;44.600;26.032;2024-02-04T01:01:15;26.48;;;17.10;;
79122;SDS011;68526;44.600;26.032;2024-02-04T01:01:30;27.95;;;17.67;;
79122;SDS011;68526;44.600;26.032;2024-02-04T01:01:48;26.10;;;17.85;;
79122;SDS011;68526;44.600;26.032;2024-02-04T01:02:03;26.23;;;18.40;;
79122;SDS011;68526;44.600;26.032;2024-02-04T01:02:19;26.95;;;19.05;;
79122;SDS011;68526;44.600;26.032;2024-02-04T01:02:35;27.30;;;18.70;;
79122;SDS011;68526;44.600;26.032;2024-02-04T01:02:51;26.73;;;18.63;;
79122;SDS011;68526;44.600;26.032;2024-02-04T01:03:07;26.88;;;18.45;;
79122;SDS011;68526;44.600;26.032;2024-02-04T01:03:23;28.00;;;18.38;;
79122;SDS011;68526;44.600;26.032;2024-02-04T01:03:40;28.25;;;18.45;;
79122;SDS011;68526;44.600;26.032;2024-02-04T01:03:56;27.52;;;17.95;;
79122;SDS011;68526;44.600;26.032;2024-02-04T01:04:12;27.93;;;18.10;;
79122;SDS011;68526;44.600;26.032;2024-02-04T01:04:28;28.30;;;18.27;;
79122;SDS011;68526;44.600;26.032;2024-02-04T01:04:44;26.15;;;18.02;;
79122;SDS011;68526;44.600;26.032;2024-02-04T01:04:59;25.00;;;17.65;;
79122;SDS011;68526;44.600;26.032;2024-02-04T01:05:15;25.08;;;17.73;;
79122;SDS011;68526;44.600;26.032;2024-02-04T01:05:32;25.23;;;17.80;;
79122;SDS011;68526;44.600;26.032;2024-02-04T01:05:48;25.35;;;17.95;;
79122;SDS011;68526;44.600;26.032;2024-02-04T01:06:04;25.10;;;17.83;;
79122;SDS011;68526;44.600;26.032;2024-02-04T01:06:20;26.27;;;18.02;;
79122;SDS011;68526;44.600;26.032;2024-02-04T01:06:37;27.20;;;18.83;;
79122;SDS011;68526;44.600;26.032;2024-02-04T01:06:53;24.92;;;18.13;;
79122;SDS011;68526;44.600;26.032;2024-02-04T01:07:09;25.42;;;18.27;;
79122;SDS011;68526;44.600;26.032;2024-02-04T01:07:26;26.17;;;18.92;;
79122;SDS011;68526;44.600;26.032;2024-02-04T01:07:41;26.73;;;19.05;;
79122;SDS011;68526;44.600;26.032;2024-02-04T01:07:57;28.80;;;19.10;;
79122;SDS011;68526;44.600;26.032;2024-02-04T01:08:14;27.13;;;18.55;;
79122;SDS011;68526;44.600;26.032;2024-02-04T01:08:30;25.70;;;18.23;;
79122;SDS011;68526;44.600;26.032;2024-02-04T01:08:46;25.87;;;18.23;;
79122;SDS011;68526;44.600;26.032;2024-02-04T01:09:02;26.02;;;17.75;;
79122;SDS011;68526;44.600;26.032;2024-02-04T01:09:18;28.08;;;18.10;;
79122;SDS011;68526;44.600;26.032;2024-02-04T01:09:34;28.33;;;18.45;;
79122;SDS011;68526;44.600;26.032;2024-02-04T01:09:51;27.35;;;18.02;;
79122;SDS011;68526;44.600;26.032;2024-02-04T01:10:07;26.08;;;17.83;;
79122;SDS011;68526;44.600;26.032;2024-02-04T01:10:23;25.55;;;17.95;;
79122;SDS011;68526;44.600;26.032;2024-02-04T01:10:39;26.70;;;18.08;;
79122;SDS011;68526;44.600;26.032;2024-02-04T01:10:55;26.55;;;18.05;;
79122;SDS011;68526;44.600;26.032;2024-02-04T01:11:12;26.60;;;18.23;;
79122;SDS011;68526;44.600;26.032;2024-02-04T01:11:28;26.45;;;17.65;;
79122;SDS011;68526;44.600;26.032;2024-02-04T01:11:44;26.67;;;17.08;;
79122;SDS011;68526;44.600;26.032;2024-02-04T01:12:00;25.52;;;17.23;;
79122;SDS011;68526;44.600;26.032;2024-02-04T01:12:16;25.77;;;18.20;;
79122;SDS011;68526;44.600;26.032;2024-02-04T01:12:32;26.10;;;17.75;;
79122;SDS011;68526;44.600;26.032;2024-02-04T01:12:48;27.38;;;17.92;;
79122;SDS011;68526;44.600;26.032;2024-02-04T01:13:04;26.88;;;18.08;;
79122;SDS011;68526;44.600;26.032;2024-02-04T01:13:20;28.73;;;18.27;;
79122;SDS011;68526;44.600;26.032;2024-02-04T01:13:36;29.40;;;18.10;;
79122;SDS011;68526;44.600;26.032;2024-02-04T01:13:53;28.50;;;17.60;;
79122;SDS011;68526;44.600;26.032;2024-02-04T01:14:09;26.75;;;17.67;;
79122;SDS011;68526;44.600;26.032;2024-02-04T01:14:25;25.70;;;17.63;;
79122;SDS011;68526;44.600;26.032;2024-02-04T01:14:41;25.73;;;17.60;;
79122;SDS011;68526;44.600;26.032;2024-02-04T01:14:56;26.15;;;18.08;;
79122;SDS011;68526;44.600;26.032;2024-02-04T01:15:12;25.35;;;17.88;;
79122;SDS011;68526;44.600;26.032;2024-02-04T01:15:28;26.00;;;17.65;;
79122;SDS011;68526;44.600;26.032;2024-02-04T01:15:45;26.38;;;17.77;;
79122;SDS011;68526;44.600;26.032;2024-02-04T01:16:01;26.48;;;17.60;;
79122;SDS011;68526;44.600;26.032;2024-02-04T01:16:19;25.83;;;16.77;;
79122;SDS011;68526;44.600;26.032;2024-02-04T01:16:35;26.02;;;17.52;;
79122;SDS011;68526;44.600;26.032;2024-02-04T01:16:51;26.08;;;18.15;;
79122;SDS011;68526;44.600;26.032;2024-02-04T01:17:07;26.45;;;18.05;;
79122;SDS011;68526;44.600;26.032;2024-02-04T01:17:23;27.83;;;18.65;;
79122;SDS011;68526;44.600;26.032;2024-02-04T01:17:39;27.02;;;18.27;;
79122;SDS011;68526;44.600;26.032;2024-02-04T01:17:55;26.92;;;17.17;;
79122;SDS011;68526;44.600;26.032;2024-02-04T01:18:12;27.33;;;16.60;;
79122;SDS011;68526;44.600;26.032;2024-02-04T01:18:28;28.40;;;17.30;;
79122;SDS011;68526;44.600;26.032;2024-02-04T01:18:44;28.15;;;17.92;;
79122;SDS011;68526;44.600;26.032;2024-02-04T01:18:59;26.63;;;18.17;;
79122;SDS011;68526;44.600;26.032;2024-02-04T01:19:15;27.83;;;18.23;;
79122;SDS011;68526;44.600;26.032;2024-02-04T01:19:31;27.52;;;18.50;;
79122;SDS011;68526;44.600;26.032;2024-02-04T01:19:47;25.88;;;18.13;;
79122;SDS011;68526;44.600;26.032;2024-02-04T01:20:04;24.92;;;17.77;;
79122;SDS011;68526;44.600;26.032;2024-02-04T01:20:21;25.40;;;17.52;;
79122;SDS011;68526;44.600;26.032;2024-02-04T01:20:37;27.13;;;17.92;;
79122;SDS011;68526;44.600;26.032;2024-02-04T01:20:52;28.40;;;18.77;;
79122;SDS011;68526;44.600;26.032;2024-02-04T01:21:08;27.45;;;18.90;;
79122;SDS011;68526;44.600;26.032;2024-02-04T01:21:24;26.47;;;18.63;;
79122;SDS011;68526;44.600;26.032;2024-02-04T01:21:41;25.75;;;18.13;;
79122;SDS011;68526;44.600;26.032;2024-02-04T01:21:59;26.48;;;18.35;;
79122;SDS011;68526;44.600;26.032;2024-02-04T01:22:15;28.13;;;19.00;;
79122;SDS011;68526;44.600;26.032;2024-02-04T01:22:31;27.15;;;18.25;;
79122;SDS011;68526;44.600;26.032;2024-02-04T01:22:47;26.60;;;17.98;;
79122;SDS011;68526;44.600;26.032;2024-02-04T01:23:03;27.33;;;18.33;;
79122;SDS011;68526;44.600;26.032;2024-02-04T01:23:19;27.88;;;18.23;;
79122;SDS011;68526;44.600;26.032;2024-02-04T01:23:35;28.03;;;18.43;;
79122;SDS011;68526;44.600;26.032;2024-02-04T01:23:52;28.83;;;19.13;;
79122;SDS011;68526;44.600;26.032;2024-02-04T01:24:08;27.42;;;18.92;;
79122;SDS011;68526;44.600;26.032;2024-02-04T01:24:23;24.45;;;17.80;;
79122;SDS011;68526;44.600;26.032;2024-02-04T01:24:40;26.00;;;18.60;;
79122;SDS011;68526;44.600;26.032;2024-02-04T01:24:56;27.02;;;19.50;;
79122;SDS011;68526;44.600;26.032;2024-02-04T01:25:12;27.48;;;18.80;;
79122;SDS011;68526;44.600;26.032;2024-02-04T01:25:28;28.70;;;18.48;;
79122;SDS011;68526;44.600;26.032;2024-02-04T01:25:45;28.77;;;18.95;;
79122;SDS011;68526;44.600;26.032;2024-02-04T01:26:01;26.95;;;18.23;;
79122;SDS011;68526;44.600;26.032;2024-02-04T01:26:17;27.02;;;17.95;;
79122;SDS011;68526;44.600;26.032;2024-02-04T01:26:33;27.58;;;18.17;;
79122;SDS011;68526;44.600;26.032;2024-02-04T01:26:48;27.15;;;18.35;;
79122;SDS011;68526;44.600;26.032;2024-02-04T01:27:05;27.15;;;18.33;;
79122;SDS011;68526;44.600;26.032;2024-02-04T01:27:22;27.65;;;18.02;;
79122;SDS011;68526;44.600;26.032;2024-02-04T01:27:38;29.65;;;18.55;;
79122;SDS011;68526;44.600;26.032;2024-02-04T01:27:54;28.25;;;18.52;;
79122;SDS011;68526;44.600;26.032;2024-02-04T01:28:10;27.80;;;18.73;;
79122;SDS011;68526;44.600;26.032;2024-02-04T01:28:26;27.70;;;18.42;;
79122;SDS011;68526;44.600;26.032;2024-02-04T01:28:43;27.70;;;18.10;;
79122;SDS011;68526;44.600;26.032;2024-02-04T01:28:59;28.23;;;18.13;;
79122;SDS011;68526;44.600;26.032;2024-02-04T01:29:16;27.95;;;18.60;;
79122;SDS011;68526;44.600;26.032;2024-02-04T01:29:32;27.83;;;18.85;;
79122;SDS011;68526;44.600;26.032;2024-02-04T01:29:48;27.58;;;18.65;;
79122;SDS011;68526;44.600;26.032;2024-02-04T01:30:04;26.93;;;18.27;;
79122;SDS011;68526;44.600;26.032;2024-02-04T01:30:21;27.40;;;18.10;;
79122;SDS011;68526;44.600;26.032;2024-02-04T01:30:37;27.85;;;17.77;;
79122;SDS011;68526;44.600;26.032;2024-02-04T01:30:54;27.65;;;18.05;;
79122;SDS011;68526;44.600;26.032;2024-02-04T01:31:10;29.25;;;18.63;;
79122;SDS011;68526;44.600;26.032;2024-02-04T01:31:27;29.02;;;19.13;;
79122;SDS011;68526;44.600;26.032;2024-02-04T01:31:43;26.77;;;18.35;;
79122;SDS011;68526;44.600;26.032;2024-02-04T01:31:59;26.80;;;18.17;;
79122;SDS011;68526;44.600;26.032;2024-02-04T01:32:15;27.48;;;18.83;;
79122;SDS011;68526;44.600;26.032;2024-02-04T01:32:31;28.35;;;19.13;;
79122;SDS011;68526;44.600;26.032;2024-02-04T01:32:47;27.20;;;18.73;;
79122;SDS011;68526;44.600;26.032;2024-02-04T01:33:04;27.73;;;19.10;;
79122;SDS011;68526;44.600;26.032;2024-02-04T01:33:20;29.73;;;19.90;;
79122;SDS011;68526;44.600;26.032;2024-02-04T01:33:36;29.73;;;19.38;;